Time;durP1;ratioP1;P1;durP2;ratioP2;P2;SDS_P1;SDS_P2;PMS_P1;PMS_P2;Temp;Humidity;BMP_temperature;BMP_pressure;BME280_temperature;BME280_humidity;BME280_pressure;Samples;Min_cycle;Max_cycle;Signal;HPM_P1;HPM_P2
2023/04/20 00:02:14;;;;;;;5.88;2.33;;;;;;;;;;5085352;27;20079;-74
2023/04/20 00:04:40;;;;;;;3.63;2.22;;;;;;;;;;5079559;27;20035;-73
2023/04/20 00:07:06;;;;;;;5.32;2.10;;;;;;;;;;5091618;27;20043;-74
2023/04/20 00:09:32;;;;;;;6.60;2.10;;;;;;;;;;5093934;27;20118;-73
2023/04/20 00:11:59;;;;;;;6.88;1.92;;;;;;;;;;5078479;27;20050;-73
2023/04/20 00:14:25;;;;;;;9.77;2.05;;;;;;;;;;5092838;27;20047;-73
2023/04/20 00:16:51;;;;;;;5.90;2.63;;;;;;;;;;5090658;27;20050;-73
2023/04/20 00:19:17;;;;;;;4.90;2.33;;;;;;;;;;5092834;27;20028;-73
2023/04/20 00:21:44;;;;;;;3.45;2.03;;;;;;;;;;5091743;27;20063;-73
2023/04/20 00:24:10;;;;;;;3.45;2.15;;;;;;;;;;5089504;27;20051;-73
2023/04/20 00:26:36;;;;;;;6.03;2.10;;;;;;;;;;5084047;28;22155;-73
2023/04/20 00:29:02;;;;;;;5.00;1.80;;;;;;;;;;5084775;27;20036;-73
2023/04/20 00:31:28;;;;;;;9.98;2.50;;;;;;;;;;5091824;27;20048;-73
2023/04/20 00:33:54;;;;;;;6.15;2.25;;;;;;;;;;5067476;27;21893;-73
2023/04/20 00:36:20;;;;;;;6.88;2.03;;;;;;;;;;5100026;27;20091;-73
2023/04/20 00:38:46;;;;;;;7.13;2.30;;;;;;;;;;5084553;27;20047;-73
2023/04/20 00:41:13;;;;;;;5.97;2.00;;;;;;;;;;5060837;27;20035;-73
2023/04/20 00:43:49;;;;;;;4.15;1.77;;;;;;;;;;5083083;27;20043;-73
2023/04/20 00:46:15;;;;;;;6.10;1.80;;;;;;;;;;5082298;27;20048;-73
2023/04/20 00:48:41;;;;;;;3.80;1.95;;;;;;;;;;5064430;28;20039;-73
2023/04/20 00:51:08;;;;;;;8.30;2.08;;;;;;;;;;5078062;27;20687;-74
2023/04/20 00:53:36;;;;;;;6.57;2.10;;;;;;;;;;5085224;27;20100;-73
2023/04/20 00:56:02;;;;;;;4.00;2.60;;;;;;;;;;5087568;27;20046;-72
2023/04/20 00:58:28;;;;;;;5.05;1.90;;;;;;;;;;5088679;27;20058;-73
2023/04/20 01:00:54;;;;;;;4.45;2.22;;;;;;;;;;5087928;27;20059;-73
2023/04/20 01:03:21;;;;;;;4.30;2.00;;;;;;;;;;5064392;28;20112;-73
2023/04/20 01:05:47;;;;;;;5.70;2.45;;;;;;;;;;5086841;28;20043;-73
2023/04/20 01:08:13;;;;;;;6.97;2.03;;;;;;;;;;5084549;27;20047;-73
2023/04/20 01:10:39;;;;;;;6.30;2.00;;;;;;;;;;5084319;27;20985;-73
2023/04/20 01:13:05;;;;;;;7.97;2.53;;;;;;;;;;5086362;27;20047;-73
2023/04/20 01:15:33;;;;;;;10.80;2.40;;;;;;;;;;5062435;27;20081;-72
2023/04/20 01:17:59;;;;;;;3.13;1.83;;;;;;;;;;5060987;27;20582;-74
2023/04/20 01:20:25;;;;;;;8.50;2.25;;;;;;;;;;5088867;27;20183;-74
2023/04/20 01:22:53;;;;;;;6.28;2.08;;;;;;;;;;5080232;28;20054;-74
2023/04/20 01:25:19;;;;;;;3.60;2.00;;;;;;;;;;5062334;28;20411;-73
2023/04/20 01:27:45;;;;;;;6.53;2.10;;;;;;;;;;5082032;27;20044;-74
2023/04/20 01:30:12;;;;;;;7.63;2.42;;;;;;;;;;5062983;27;20073;-74
2023/04/20 01:32:39;;;;;;;4.63;2.22;;;;;;;;;;5068975;27;20584;-74
2023/04/20 01:35:05;;;;;;;7.50;2.33;;;;;;;;;;5085274;27;20055;-74
2023/04/20 01:37:31;;;;;;;7.18;2.10;;;;;;;;;;5083093;27;20036;-73
2023/04/20 01:39:58;;;;;;;4.55;1.90;;;;;;;;;;5081443;27;20058;-73
2023/04/20 01:42:24;;;;;;;8.70;2.13;;;;;;;;;;5084636;27;20044;-73
2023/04/20 01:44:50;;;;;;;14.60;2.95;;;;;;;;;;5085483;27;20146;-73
2023/04/20 01:47:16;;;;;;;6.15;2.78;;;;;;;;;;5085629;28;21409;-73
2023/04/20 01:49:42;;;;;;;8.65;2.95;;;;;;;;;;5088147;27;20040;-73
2023/04/20 01:52:08;;;;;;;10.00;2.30;;;;;;;;;;5078459;28;20043;-73
2023/04/20 01:54:36;;;;;;;7.60;2.35;;;;;;;;;;5084647;27;20046;-73
2023/04/20 01:57:02;;;;;;;8.50;2.40;;;;;;;;;;5069586;28;20067;-73
2023/04/20 01:59:28;;;;;;;7.03;2.25;;;;;;;;;;5083554;27;20074;-73
2023/04/20 02:01:54;;;;;;;7.20;2.47;;;;;;;;;;5084388;27;20938;-73
2023/04/20 02:04:21;;;;;;;16.35;2.17;;;;;;;;;;5085618;27;20092;-73
2023/04/20 02:06:47;;;;;;;3.90;2.28;;;;;;;;;;5088032;27;20039;-72
2023/04/20 02:09:13;;;;;;;10.00;2.47;;;;;;;;;;5092812;27;20040;-73
2023/04/20 02:11:39;;;;;;;6.38;2.60;;;;;;;;;;5089509;27;20105;-73
2023/04/20 02:14:05;;;;;;;6.88;2.42;;;;;;;;;;5084412;27;20055;-72
2023/04/20 02:16:31;;;;;;;6.85;2.38;;;;;;;;;;5086279;27;20086;-72
2023/04/20 02:18:57;;;;;;;8.45;2.10;;;;;;;;;;5088626;27;20058;-72
2023/04/20 02:21:23;;;;;;;7.93;2.45;;;;;;;;;;5089432;27;22145;-73
2023/04/20 02:23:49;;;;;;;6.28;3.78;;;;;;;;;;5090036;27;20035;-73
2023/04/20 02:26:15;;;;;;;8.30;2.35;;;;;;;;;;5086850;27;20055;-73
2023/04/20 02:28:42;;;;;;;5.40;2.50;;;;;;;;;;5084980;27;20101;-73
2023/04/20 02:31:08;;;;;;;5.75;2.13;;;;;;;;;;5085124;27;20047;-72
2023/04/20 02:33:34;;;;;;;9.20;2.20;;;;;;;;;;5086975;27;20383;-72
2023/04/20 02:36:00;;;;;;;7.05;2.35;;;;;;;;;;5105718;27;20048;-72
2023/04/20 02:38:27;;;;;;;4.75;2.22;;;;;;;;;;5071332;27;20045;-72
2023/04/20 02:40:53;;;;;;;4.40;2.30;;;;;;;;;;5085284;27;20152;-72
2023/04/20 02:43:19;;;;;;;5.60;2.70;;;;;;;;;;5083560;27;20177;-72
2023/04/20 02:45:45;;;;;;;5.28;2.00;;;;;;;;;;5088298;27;20042;-72
2023/04/20 02:48:12;;;;;;;10.75;2.80;;;;;;;;;;5087168;27;20035;-73
2023/04/20 02:50:38;;;;;;;8.02;2.42;;;;;;;;;;5083922;27;20055;-73
2023/04/20 02:53:04;;;;;;;4.68;2.17;;;;;;;;;;5061660;27;20075;-73
2023/04/20 02:55:30;;;;;;;7.40;2.47;;;;;;;;;;5085447;27;20067;-74
2023/04/20 02:57:56;;;;;;;4.25;2.28;;;;;;;;;;5086788;27;20059;-74
2023/04/20 03:00:23;;;;;;;8.38;2.25;;;;;;;;;;5087647;27;20047;-74
2023/04/20 03:02:49;;;;;;;5.85;2.22;;;;;;;;;;5089138;27;20077;-73
2023/04/20 03:05:15;;;;;;;5.97;3.08;;;;;;;;;;5089208;27;20120;-74
2023/04/20 03:07:42;;;;;;;5.88;2.63;;;;;;;;;;5082648;27;22227;-73
2023/04/20 03:10:08;;;;;;;7.13;2.40;;;;;;;;;;5096182;27;20108;-73
2023/04/20 03:12:34;;;;;;;6.28;2.40;;;;;;;;;;5088835;27;20111;-73
2023/04/20 03:15:00;;;;;;;3.97;2.00;;;;;;;;;;5089269;27;20295;-73
2023/04/20 03:17:27;;;;;;;7.78;2.00;;;;;;;;;;5088816;27;20079;-73
2023/04/20 03:19:53;;;;;;;6.43;2.20;;;;;;;;;;5088922;27;20050;-73
2023/04/20 03:22:19;;;;;;;5.13;2.00;;;;;;;;;;5084534;27;20047;-72
2023/04/20 03:24:46;;;;;;;4.57;2.50;;;;;;;;;;5088565;27;20075;-72
2023/04/20 03:27:13;;;;;;;3.75;1.90;;;;;;;;;;5088900;27;20095;-72
2023/04/20 03:29:39;;;;;;;7.60;2.70;;;;;;;;;;5089037;27;20036;-72
2023/04/20 03:32:05;;;;;;;8.00;2.22;;;;;;;;;;5088739;27;20050;-73
2023/04/20 03:34:31;;;;;;;4.07;2.20;;;;;;;;;;5071857;27;20076;-72
2023/04/20 03:36:57;;;;;;;6.13;2.60;;;;;;;;;;5087000;27;20039;-73
2023/04/20 03:39:23;;;;;;;5.45;2.30;;;;;;;;;;5081762;27;21022;-74
2023/04/20 03:41:50;;;;;;;7.30;2.33;;;;;;;;;;5084438;27;20074;-73
2023/04/20 03:44:16;;;;;;;4.88;2.67;;;;;;;;;;5081876;27;20039;-73
2023/04/20 03:46:42;;;;;;;7.20;2.22;;;;;;;;;;5080629;27;20053;-73
2023/04/20 03:49:08;;;;;;;8.25;2.42;;;;;;;;;;5085722;27;20410;-73
2023/04/20 03:51:34;;;;;;;4.55;1.77;;;;;;;;;;5083942;27;20043;-74
2023/04/20 03:54:00;;;;;;;5.28;2.22;;;;;;;;;;5064010;27;20044;-72
2023/04/20 03:56:27;;;;;;;5.93;2.20;;;;;;;;;;5083867;27;20050;-74
2023/04/20 03:58:53;;;;;;;5.78;2.35;;;;;;;;;;5080334;27;20098;-73
2023/04/20 04:01:19;;;;;;;3.25;1.70;;;;;;;;;;5078736;27;20039;-73
2023/04/20 04:03:45;;;;;;;6.85;2.10;;;;;;;;;;5077421;27;20047;-73
2023/04/20 04:06:11;;;;;;;4.47;1.83;;;;;;;;;;5079435;27;22273;-73
2023/04/20 04:08:37;;;;;;;4.10;1.77;;;;;;;;;;5082780;27;20380;-73
2023/04/20 04:11:03;;;;;;;4.72;1.63;;;;;;;;;;5079917;27;20040;-73
2023/04/20 04:13:29;;;;;;;5.43;1.95;;;;;;;;;;5085486;27;20135;-73
2023/04/20 04:15:55;;;;;;;3.35;1.95;;;;;;;;;;5075103;27;20047;-73
2023/04/20 04:18:22;;;;;;;11.82;2.10;;;;;;;;;;5084278;27;20078;-74
2023/04/20 04:20:48;;;;;;;10.63;2.00;;;;;;;;;;5083586;27;20048;-74
2023/04/20 04:23:14;;;;;;;6.75;2.22;;;;;;;;;;5081264;27;20135;-74
2023/04/20 04:25:40;;;;;;;4.90;2.60;;;;;;;;;;5079770;27;20135;-74
2023/04/20 04:28:06;;;;;;;9.98;2.20;;;;;;;;;;5087137;27;20047;-74
2023/04/20 04:30:33;;;;;;;8.20;2.47;;;;;;;;;;5074077;27;20058;-74
2023/04/20 04:32:59;;;;;;;6.75;2.30;;;;;;;;;;5080611;27;20050;-73
2023/04/20 04:35:26;;;;;;;5.72;2.38;;;;;;;;;;5055505;28;20043;-74
2023/04/20 04:37:52;;;;;;;7.63;2.15;;;;;;;;;;5077754;27;20044;-73
2023/04/20 04:40:19;;;;;;;7.47;2.10;;;;;;;;;;5077237;27;20039;-74
2023/04/20 04:42:46;;;;;;;6.22;2.28;;;;;;;;;;5079318;27;20378;-73
2023/04/20 04:45:12;;;;;;;4.32;2.13;;;;;;;;;;5077465;27;20047;-73
2023/04/20 04:47:40;;;;;;;5.93;1.83;;;;;;;;;;5087936;27;20633;-73
2023/04/20 04:50:08;;;;;;;7.63;2.00;;;;;;;;;;5068128;28;20061;-73
2023/04/20 04:52:34;;;;;;;5.47;2.67;;;;;;;;;;5086100;27;20054;-73
2023/04/20 04:55:00;;;;;;;7.25;2.33;;;;;;;;;;5085195;27;20071;-74
2023/04/20 04:57:26;;;;;;;7.68;2.83;;;;;;;;;;5083115;27;20054;-74
2023/04/20 04:59:52;;;;;;;7.40;2.47;;;;;;;;;;5079323;28;20063;-73
2023/04/20 05:02:19;;;;;;;6.82;2.17;;;;;;;;;;5087721;27;20051;-74
2023/04/20 05:04:45;;;;;;;6.65;1.77;;;;;;;;;;5087048;27;20050;-73
2023/04/20 05:07:12;;;;;;;5.72;1.90;;;;;;;;;;5087970;27;20058;-73
2023/04/20 05:09:39;;;;;;;5.50;1.83;;;;;;;;;;5089144;27;20563;-74
2023/04/20 05:12:05;;;;;;;12.27;1.90;;;;;;;;;;5086710;27;20680;-74
2023/04/20 05:14:32;;;;;;;4.40;2.00;;;;;;;;;;5085752;27;20776;-74
2023/04/20 05:17:01;;;;;;;4.18;2.00;;;;;;;;;;5086545;27;20035;-74
2023/04/20 05:19:27;;;;;;;2.80;1.95;;;;;;;;;;5085201;28;20043;-74
2023/04/20 05:21:53;;;;;;;6.13;2.47;;;;;;;;;;5086760;27;20089;-74
2023/04/20 05:24:19;;;;;;;6.35;1.95;;;;;;;;;;5084859;27;20039;-74
2023/04/20 05:26:45;;;;;;;5.00;1.85;;;;;;;;;;5087859;28;20036;-74
2023/04/20 05:29:12;;;;;;;5.88;1.70;;;;;;;;;;5084144;27;20043;-75
2023/04/20 05:31:38;;;;;;;10.80;1.88;;;;;;;;;;5084325;27;20043;-74
2023/04/20 05:34:04;;;;;;;4.72;1.83;;;;;;;;;;5087479;27;20119;-74
2023/04/20 05:36:32;;;;;;;6.70;2.50;;;;;;;;;;5089733;27;20055;-73
2023/04/20 05:38:58;;;;;;;4.15;1.90;;;;;;;;;;5104068;27;20058;-73
2023/04/20 05:41:27;;;;;;;8.48;1.63;;;;;;;;;;5088006;27;20118;-72
2023/04/20 05:43:56;;;;;;;7.57;2.15;;;;;;;;;;5088218;27;20146;-72
2023/04/20 05:46:22;;;;;;;5.20;1.75;;;;;;;;;;5079992;27;20036;-72
2023/04/20 05:48:49;;;;;;;6.32;1.73;;;;;;;;;;5088889;27;22807;-73
2023/04/20 05:51:15;;;;;;;3.33;2.17;;;;;;;;;;5092267;27;20047;-73
2023/04/20 05:53:41;;;;;;;6.22;1.92;;;;;;;;;;5089609;27;21818;-73
2023/04/20 05:56:07;;;;;;;5.25;2.00;;;;;;;;;;5089480;27;20656;-73
2023/04/20 05:58:36;;;;;;;8.20;2.53;;;;;;;;;;5092331;27;20180;-73
2023/04/20 06:01:03;;;;;;;4.15;2.00;;;;;;;;;;5092315;27;20047;-74
2023/04/20 06:03:29;;;;;;;5.65;2.17;;;;;;;;;;5090449;27;20395;-73
2023/04/20 06:05:55;;;;;;;8.02;2.35;;;;;;;;;;5090069;27;20039;-73
2023/04/20 06:08:21;;;;;;;6.97;3.60;;;;;;;;;;5082005;27;20036;-73
2023/04/20 06:10:47;;;;;;;7.93;2.15;;;;;;;;;;5087288;27;20043;-73
2023/04/20 06:13:16;;;;;;;3.70;2.20;;;;;;;;;;5089118;27;20048;-73
2023/04/20 06:15:42;;;;;;;9.43;2.20;;;;;;;;;;5092313;27;20135;-73
2023/04/20 06:18:08;;;;;;;6.25;2.35;;;;;;;;;;5080319;27;21362;-74
2023/04/20 06:20:34;;;;;;;3.78;2.17;;;;;;;;;;5090519;27;20031;-75
2023/04/20 06:23:00;;;;;;;6.68;2.50;;;;;;;;;;5089998;27;20047;-75
2023/04/20 06:25:27;;;;;;;7.57;1.98;;;;;;;;;;5091008;27;20044;-74
2023/04/20 06:27:53;;;;;;;4.93;2.97;;;;;;;;;;5087113;27;20048;-74
2023/04/20 06:30:19;;;;;;;7.20;2.42;;;;;;;;;;5082785;27;20046;-73
2023/04/20 06:32:45;;;;;;;7.93;2.53;;;;;;;;;;5089684;27;20092;-74
2023/04/20 06:35:11;;;;;;;4.70;2.50;;;;;;;;;;5080389;27;20043;-75
2023/04/20 06:37:39;;;;;;;5.53;2.30;;;;;;;;;;5086206;27;20082;-75
2023/04/20 06:40:06;;;;;;;4.28;2.15;;;;;;;;;;5086328;27;20162;-75
2023/04/20 06:42:33;;;;;;;9.77;3.08;;;;;;;;;;5087804;27;20071;-74
2023/04/20 06:44:59;;;;;;;12.70;3.20;;;;;;;;;;5088558;27;20510;-74
2023/04/20 06:47:30;;;;;;;5.47;2.33;;;;;;;;;;5087339;27;20047;-74
2023/04/20 06:49:56;;;;;;;8.45;2.70;;;;;;;;;;5089342;27;20043;-75
2023/04/20 06:52:23;;;;;;;4.80;2.78;;;;;;;;;;5091687;27;20047;-74
2023/04/20 06:54:49;;;;;;;4.32;2.83;;;;;;;;;;5066850;27;20096;-74
2023/04/20 06:57:15;;;;;;;12.45;3.10;;;;;;;;;;5090096;27;20113;-74
2023/04/20 06:59:41;;;;;;;7.22;2.95;;;;;;;;;;5090451;27;20063;-74
2023/04/20 07:02:07;;;;;;;8.70;3.47;;;;;;;;;;5091223;27;20071;-75
2023/04/20 07:04:33;;;;;;;7.22;3.08;;;;;;;;;;5088421;27;20049;-74
2023/04/20 07:06:59;;;;;;;11.05;3.33;;;;;;;;;;5091478;27;20399;-74
2023/04/20 07:09:25;;;;;;;7.82;3.10;;;;;;;;;;5089813;27;20043;-75
2023/04/20 07:11:52;;;;;;;6.40;3.00;;;;;;;;;;5083133;27;21731;-74
2023/04/20 07:14:19;;;;;;;5.22;3.05;;;;;;;;;;5086851;27;20131;-75
2023/04/20 07:16:45;;;;;;;7.05;2.75;;;;;;;;;;5085701;27;22443;-74
2023/04/20 07:19:11;;;;;;;4.95;3.10;;;;;;;;;;5086291;27;22001;-75
2023/04/20 07:21:37;;;;;;;4.63;2.88;;;;;;;;;;5085999;27;20075;-75
2023/04/20 07:24:03;;;;;;;4.65;2.80;;;;;;;;;;5087391;27;20043;-75
2023/04/20 07:26:30;;;;;;;3.78;2.95;;;;;;;;;;5070833;27;20040;-75
2023/04/20 07:28:56;;;;;;;10.70;3.33;;;;;;;;;;5085770;27;20081;-75
2023/04/20 07:31:22;;;;;;;6.88;2.88;;;;;;;;;;5086253;27;20044;-74
2023/04/20 07:33:48;;;;;;;3.90;2.63;;;;;;;;;;5085088;27;20134;-75
2023/04/20 07:36:14;;;;;;;4.45;2.92;;;;;;;;;;5087415;27;20579;-75
2023/04/20 07:38:40;;;;;;;6.70;3.00;;;;;;;;;;5089525;27;20503;-76
2023/04/20 07:41:09;;;;;;;8.15;3.47;;;;;;;;;;5086353;27;20679;-75
2023/04/20 07:43:36;;;;;;;4.40;2.83;;;;;;;;;;5087789;27;20062;-75
2023/04/20 07:46:02;;;;;;;6.95;3.08;;;;;;;;;;5092940;27;20059;-75
2023/04/20 07:48:28;;;;;;;5.07;3.10;;;;;;;;;;5086958;27;20096;-76
2023/04/20 07:50:55;;;;;;;8.23;3.38;;;;;;;;;;5086000;27;20057;-76
2023/04/20 07:53:21;;;;;;;4.85;3.08;;;;;;;;;;5085676;27;20068;-76
2023/04/20 07:55:47;;;;;;;5.93;3.20;;;;;;;;;;5068951;27;20047;-76
2023/04/20 07:58:15;;;;;;;11.23;3.00;;;;;;;;;;5087072;27;20649;-75
2023/04/20 08:00:41;;;;;;;5.25;3.10;;;;;;;;;;5089948;27;20054;-76
2023/04/20 08:03:07;;;;;;;4.93;3.33;;;;;;;;;;5069671;27;21832;-74
2023/04/20 08:05:33;;;;;;;7.30;3.35;;;;;;;;;;5080377;27;20047;-75
2023/04/20 08:07:59;;;;;;;6.80;2.95;;;;;;;;;;5090196;27;22062;-74
2023/04/20 08:10:25;;;;;;;5.25;3.58;;;;;;;;;;5088210;27;22091;-75
2023/04/20 08:12:52;;;;;;;8.02;3.42;;;;;;;;;;5088581;27;20118;-75
2023/04/20 08:15:18;;;;;;;7.30;4.15;;;;;;;;;;5088803;27;20070;-75
2023/04/20 08:17:44;;;;;;;10.10;3.80;;;;;;;;;;5085739;27;20040;-75
2023/04/20 08:20:11;;;;;;;6.03;3.33;;;;;;;;;;5085737;27;20060;-76
2023/04/20 08:22:37;;;;;;;5.70;3.42;;;;;;;;;;5051621;27;20091;-75
2023/04/20 08:25:04;;;;;;;7.63;3.75;;;;;;;;;;5087346;27;20050;-76
2023/04/20 08:27:30;;;;;;;9.02;3.58;;;;;;;;;;5063808;27;20043;-76
2023/04/20 08:29:56;;;;;;;8.98;3.47;;;;;;;;;;5089916;27;20380;-75
2023/04/20 08:32:23;;;;;;;7.50;3.33;;;;;;;;;;5088451;27;20039;-76
2023/04/20 08:34:50;;;;;;;8.75;3.72;;;;;;;;;;5085714;27;20040;-75
2023/04/20 08:37:16;;;;;;;8.45;3.70;;;;;;;;;;5058810;27;20134;-75
2023/04/20 08:39:42;;;;;;;7.45;3.95;;;;;;;;;;5079156;27;20119;-75
2023/04/20 08:42:08;;;;;;;9.60;5.00;;;;;;;;;;5086525;27;20071;-75
2023/04/20 08:44:34;;;;;;;7.13;3.97;;;;;;;;;;5086653;27;20043;-77
2023/04/20 08:47:00;;;;;;;9.88;4.15;;;;;;;;;;5085550;27;20044;-73
2023/04/20 08:49:31;;;;;;;8.48;3.63;;;;;;;;;;5086267;27;20043;-73
2023/04/20 08:51:57;;;;;;;5.05;3.88;;;;;;;;;;5082758;27;20067;-73
2023/04/20 08:54:23;;;;;;;7.00;3.60;;;;;;;;;;5085381;27;20091;-72
2023/04/20 08:56:50;;;;;;;5.97;3.58;;;;;;;;;;5085514;27;20093;-72
2023/04/20 08:59:16;;;;;;;8.25;3.95;;;;;;;;;;5097207;27;20514;-73
2023/04/20 09:01:42;;;;;;;5.97;3.95;;;;;;;;;;5087625;27;20054;-73
2023/04/20 09:04:19;;;;;;;5.28;3.67;;;;;;;;;;5062934;28;21558;-81
2023/04/20 09:06:46;;;;;;;6.85;3.70;;;;;;;;;;5089585;27;20036;-77
2023/04/20 09:09:12;;;;;;;10.73;4.25;;;;;;;;;;5087540;27;20113;-76
2023/04/20 09:11:39;;;;;;;8.88;4.13;;;;;;;;;;5064088;28;20154;-76
2023/04/20 09:14:16;;;;;;;11.38;4.35;;;;;;;;;;5076243;27;20495;-76
2023/04/20 09:16:49;;;;;;;7.82;4.30;;;;;;;;;;5094144;27;20595;-76
2023/04/20 09:19:20;;;;;;;7.63;4.28;;;;;;;;;;5093928;27;20047;-77
2023/04/20 09:21:50;;;;;;;8.27;4.80;;;;;;;;;;5086290;27;20730;-76
2023/04/20 09:24:17;;;;;;;9.85;4.50;;;;;;;;;;5091398;27;20046;-76
2023/04/20 09:26:43;;;;;;;12.48;4.30;;;;;;;;;;5066513;27;20046;-76
2023/04/20 09:29:16;;;;;;;8.30;4.38;;;;;;;;;;5088814;27;20039;-76
2023/04/20 09:31:42;;;;;;;10.65;4.88;;;;;;;;;;5091383;27;20040;-76
2023/04/20 09:34:08;;;;;;;10.60;4.70;;;;;;;;;;5075024;27;20138;-76
2023/04/20 09:36:38;;;;;;;9.25;4.78;;;;;;;;;;5091181;27;20051;-76
2023/04/20 09:39:06;;;;;;;13.32;5.28;;;;;;;;;;5093388;27;20047;-76
2023/04/20 09:41:34;;;;;;;9.05;5.15;;;;;;;;;;5088775;27;20120;-76
2023/04/20 09:44:00;;;;;;;10.15;4.93;;;;;;;;;;5081986;27;20038;-76
2023/04/20 09:46:29;;;;;;;12.25;5.43;;;;;;;;;;5089691;27;20039;-76
2023/04/20 09:48:55;;;;;;;6.85;4.65;;;;;;;;;;5089767;27;21542;-76
2023/04/20 09:51:22;;;;;;;8.32;4.88;;;;;;;;;;5087756;27;20040;-76
2023/04/20 09:53:49;;;;;;;6.47;4.43;;;;;;;;;;5090320;27;20854;-76
2023/04/20 09:56:16;;;;;;;9.43;4.50;;;;;;;;;;5088916;27;20040;-76
2023/04/20 09:58:44;;;;;;;9.77;4.90;;;;;;;;;;5085662;27;20094;-76
2023/04/20 10:01:10;;;;;;;8.43;5.00;;;;;;;;;;5088624;27;20050;-76
2023/04/20 10:03:36;;;;;;;8.32;4.90;;;;;;;;;;5090242;27;20057;-76
2023/04/20 10:06:02;;;;;;;8.02;4.72;;;;;;;;;;5087298;27;20055;-76
2023/04/20 10:08:40;;;;;;;11.73;4.70;;;;;;;;;;5067252;27;20130;-76
2023/04/20 10:11:06;;;;;;;16.83;5.28;;;;;;;;;;5089836;27;20047;-75
2023/04/20 10:13:33;;;;;;;9.40;4.53;;;;;;;;;;5087318;27;20068;-75
2023/04/20 10:15:59;;;;;;;10.00;4.65;;;;;;;;;;5088877;27;20058;-76
2023/04/20 10:18:25;;;;;;;8.95;4.88;;;;;;;;;;5092072;27;20050;-76
2023/04/20 10:20:52;;;;;;;9.07;5.93;;;;;;;;;;5068542;27;20046;-76
2023/04/20 10:23:18;;;;;;;10.05;4.70;;;;;;;;;;5082235;27;20088;-75
2023/04/20 10:25:59;;;;;;;10.60;4.75;;;;;;;;;;5088798;27;20051;-75
2023/04/20 10:28:25;;;;;;;7.47;4.65;;;;;;;;;;5085105;27;20054;-75
2023/04/20 10:30:52;;;;;;;11.60;4.93;;;;;;;;;;5055721;27;20051;-76
2023/04/20 10:33:18;;;;;;;9.57;5.53;;;;;;;;;;5089795;27;20647;-76
2023/04/20 10:35:47;;;;;;;9.80;5.05;;;;;;;;;;5089415;27;20103;-76
2023/04/20 10:38:13;;;;;;;9.65;5.07;;;;;;;;;;5091415;27;20044;-75
2023/04/20 10:40:39;;;;;;;7.68;4.97;;;;;;;;;;5087452;27;20075;-76
2023/04/20 10:43:18;;;;;;;10.35;5.05;;;;;;;;;;5066268;27;20035;-76
2023/04/20 10:45:44;;;;;;;10.40;5.15;;;;;;;;;;5092932;27;20053;-75
2023/04/20 10:48:10;;;;;;;8.75;5.72;;;;;;;;;;5084747;27;20054;-75
2023/04/20 10:50:36;;;;;;;9.60;5.22;;;;;;;;;;5089344;27;20094;-76
2023/04/20 10:53:03;;;;;;;9.10;5.07;;;;;;;;;;5086726;27;20039;-76
2023/04/20 10:55:29;;;;;;;10.20;5.43;;;;;;;;;;5090546;27;20047;-79
2023/04/20 10:57:56;;;;;;;10.02;6.32;;;;;;;;;;5089863;27;20047;-76
2023/04/20 11:00:23;;;;;;;8.90;5.10;;;;;;;;;;5090640;27;20048;-76
2023/04/20 11:02:52;;;;;;;9.63;5.30;;;;;;;;;;5068297;27;20044;-76
2023/04/20 11:05:19;;;;;;;9.07;5.63;;;;;;;;;;5090254;27;20084;-76
2023/04/20 11:07:55;;;;;;;11.27;5.38;;;;;;;;;;5089510;27;20134;-76
2023/04/20 11:10:22;;;;;;;7.35;5.53;;;;;;;;;;5083712;27;20040;-76
2023/04/20 11:12:48;;;;;;;9.02;5.70;;;;;;;;;;5087502;27;20055;-75
2023/04/20 11:15:15;;;;;;;10.15;5.63;;;;;;;;;;5087802;27;20468;-76
2023/04/20 11:17:41;;;;;;;9.27;5.53;;;;;;;;;;5068551;27;20438;-75
2023/04/20 11:20:12;;;;;;;12.23;5.32;;;;;;;;;;5089050;27;20051;-74
2023/04/20 11:22:38;;;;;;;10.13;5.65;;;;;;;;;;5089834;27;20733;-74
2023/04/20 11:25:06;;;;;;;10.57;5.93;;;;;;;;;;5088575;27;20193;-75
2023/04/20 11:27:32;;;;;;;9.77;5.80;;;;;;;;;;5081041;27;20035;-74
2023/04/20 11:29:58;;;;;;;10.40;5.13;;;;;;;;;;5087030;27;20090;-75
2023/04/20 11:32:25;;;;;;;9.10;5.35;;;;;;;;;;5063857;28;20039;-74
2023/04/20 11:35:06;;;;;;;12.07;5.57;;;;;;;;;;5089280;27;20135;-75
2023/04/20 11:37:32;;;;;;;7.45;5.35;;;;;;;;;;5082694;27;20047;-75
2023/04/20 11:39:59;;;;;;;8.73;5.47;;;;;;;;;;5089425;27;20149;-75
2023/04/20 11:42:26;;;;;;;11.00;5.57;;;;;;;;;;5088244;27;20073;-75
2023/04/20 11:44:52;;;;;;;10.23;5.78;;;;;;;;;;5092262;27;20084;-74
2023/04/20 11:47:18;;;;;;;7.72;5.70;;;;;;;;;;5089496;27;20291;-75
2023/04/20 11:49:44;;;;;;;9.57;5.35;;;;;;;;;;5086117;27;20145;-75
2023/04/20 11:52:10;;;;;;;7.85;5.63;;;;;;;;;;5087459;27;20042;-74
2023/04/20 11:54:36;;;;;;;8.10;5.43;;;;;;;;;;5071034;27;20044;-74
2023/04/20 11:57:03;;;;;;;8.65;5.60;;;;;;;;;;5090030;27;20134;-74
2023/04/20 11:59:29;;;;;;;9.77;5.93;;;;;;;;;;5085130;27;22111;-74
2023/04/20 12:01:55;;;;;;;8.43;5.88;;;;;;;;;;5086004;27;20043;-75
2023/04/20 12:04:21;;;;;;;8.18;6.00;;;;;;;;;;5072047;27;20047;-74
2023/04/20 12:06:47;;;;;;;8.40;5.40;;;;;;;;;;5066303;27;20054;-75
2023/04/20 12:09:14;;;;;;;8.43;5.82;;;;;;;;;;5064222;27;20061;-75
2023/04/20 12:11:40;;;;;;;10.38;5.80;;;;;;;;;;5088845;27;20407;-74
2023/04/20 12:14:06;;;;;;;8.30;5.90;;;;;;;;;;5088114;27;20039;-75
2023/04/20 12:16:32;;;;;;;9.55;6.38;;;;;;;;;;5065163;27;20055;-75
2023/04/20 12:18:58;;;;;;;10.40;6.00;;;;;;;;;;5088248;27;20055;-75
2023/04/20 12:21:26;;;;;;;13.20;6.32;;;;;;;;;;5088947;27;20164;-75
2023/04/20 12:23:52;;;;;;;9.73;6.30;;;;;;;;;;5087297;27;20047;-75
2023/04/20 12:26:18;;;;;;;8.13;6.50;;;;;;;;;;5087774;27;20126;-75
2023/04/20 12:28:44;;;;;;;10.75;6.18;;;;;;;;;;5087579;27;20039;-76
2023/04/20 12:31:10;;;;;;;11.30;6.75;;;;;;;;;;5086931;27;20051;-76
2023/04/20 12:33:36;;;;;;;8.55;6.47;;;;;;;;;;5085919;27;20034;-76
2023/04/20 12:36:02;;;;;;;11.73;7.00;;;;;;;;;;5081333;27;20097;-76
2023/04/20 12:38:28;;;;;;;7.93;5.93;;;;;;;;;;5085949;27;20047;-76
2023/04/20 12:40:54;;;;;;;9.95;6.22;;;;;;;;;;5088457;27;20051;-75
2023/04/20 12:43:20;;;;;;;9.65;6.75;;;;;;;;;;5074508;28;20043;-76
2023/04/20 12:45:47;;;;;;;9.15;6.55;;;;;;;;;;5087039;27;20066;-75
2023/04/20 12:48:13;;;;;;;10.02;6.05;;;;;;;;;;5090216;27;20043;-76
2023/04/20 12:50:39;;;;;;;9.65;6.25;;;;;;;;;;5065239;27;20031;-75
2023/04/20 12:53:05;;;;;;;11.13;6.03;;;;;;;;;;5085917;27;20061;-75
2023/04/20 12:55:32;;;;;;;7.88;6.13;;;;;;;;;;5091440;27;20039;-74
2023/04/20 12:57:58;;;;;;;11.43;6.32;;;;;;;;;;5089442;27;20043;-74
2023/04/20 13:00:26;;;;;;;9.55;6.60;;;;;;;;;;5090078;27;20500;-74
2023/04/20 13:02:52;;;;;;;9.05;6.70;;;;;;;;;;5088757;27;20048;-75
2023/04/20 13:05:19;;;;;;;9.07;6.85;;;;;;;;;;5102309;27;20552;-75
2023/04/20 13:07:45;;;;;;;8.75;6.82;;;;;;;;;;5086908;27;20081;-74
2023/04/20 13:10:11;;;;;;;6.97;6.00;;;;;;;;;;5084885;27;20079;-75
2023/04/20 13:12:37;;;;;;;10.13;6.75;;;;;;;;;;5089438;27;20048;-75
2023/04/20 13:15:07;;;;;;;7.18;5.75;;;;;;;;;;5065923;28;20586;-75
2023/04/20 13:17:33;;;;;;;7.32;6.05;;;;;;;;;;5081640;28;20051;-75
2023/04/20 13:19:59;;;;;;;7.35;6.50;;;;;;;;;;5065167;28;20040;-75
2023/04/20 13:22:25;;;;;;;8.07;6.30;;;;;;;;;;5086495;27;20488;-75
2023/04/20 13:24:51;;;;;;;8.63;6.20;;;;;;;;;;5088739;27;20484;-75
2023/04/20 13:27:17;;;;;;;9.75;7.10;;;;;;;;;;5090052;27;20040;-74
2023/04/20 13:29:43;;;;;;;12.45;7.40;;;;;;;;;;5080885;27;20078;-75
2023/04/20 13:32:09;;;;;;;8.10;6.03;;;;;;;;;;5091337;27;20160;-75
2023/04/20 13:34:36;;;;;;;8.05;6.05;;;;;;;;;;5087834;27;20031;-75
2023/04/20 13:37:02;;;;;;;8.45;6.28;;;;;;;;;;5080688;27;20043;-78
2023/04/20 13:39:28;;;;;;;8.13;5.82;;;;;;;;;;5076696;28;20040;-77
2023/04/20 13:41:55;;;;;;;9.98;7.10;;;;;;;;;;5077222;27;20054;-75
2023/04/20 13:44:21;;;;;;;9.50;6.55;;;;;;;;;;5073325;27;20044;-76
2023/04/20 13:46:48;;;;;;;7.82;6.60;;;;;;;;;;5057546;28;20043;-76
2023/04/20 13:49:15;;;;;;;10.52;7.15;;;;;;;;;;5062149;28;21128;-77
2023/04/20 13:51:41;;;;;;;10.00;7.22;;;;;;;;;;5085093;27;20044;-75
2023/04/20 13:54:07;;;;;;;10.98;7.53;;;;;;;;;;5074122;28;22081;-74
2023/04/20 13:56:34;;;;;;;7.60;6.75;;;;;;;;;;5084240;28;20040;-76
2023/04/20 13:59:02;;;;;;;8.82;7.07;;;;;;;;;;5086463;27;20044;-76
2023/04/20 14:01:28;;;;;;;9.00;6.90;;;;;;;;;;5085204;27;20063;-76
2023/04/20 14:04:00;;;;;;;9.98;7.15;;;;;;;;;;5090779;27;20044;-76
2023/04/20 14:06:27;;;;;;;6.90;6.00;;;;;;;;;;5087851;27;20100;-76
2023/04/20 14:08:54;;;;;;;7.88;6.57;;;;;;;;;;5083838;27;21032;-75
2023/04/20 14:11:20;;;;;;;7.75;6.03;;;;;;;;;;5086326;27;20043;-76
2023/04/20 14:13:46;;;;;;;13.00;7.35;;;;;;;;;;5067016;27;20490;-76
2023/04/20 14:16:15;;;;;;;9.25;6.60;;;;;;;;;;5091584;27;20032;-77
2023/04/20 14:18:41;;;;;;;8.43;6.30;;;;;;;;;;5094172;27;20138;-74
2023/04/20 14:21:08;;;;;;;7.95;5.97;;;;;;;;;;5087813;27;20046;-75
2023/04/20 14:23:34;;;;;;;11.57;6.80;;;;;;;;;;5089745;27;20098;-74
2023/04/20 14:26:02;;;;;;;8.27;6.55;;;;;;;;;;5094235;27;20043;-75
2023/04/20 14:28:28;;;;;;;7.97;6.35;;;;;;;;;;5092438;27;20040;-75
2023/04/20 14:30:54;;;;;;;7.43;5.97;;;;;;;;;;5068556;27;20054;-74
2023/04/20 14:33:20;;;;;;;8.93;6.07;;;;;;;;;;5093230;27;20162;-75
2023/04/20 14:35:46;;;;;;;7.93;6.70;;;;;;;;;;5086573;27;20082;-76
2023/04/20 14:38:13;;;;;;;8.05;6.65;;;;;;;;;;5068761;27;20044;-74